sensor_id;sensor_type;location;lat;lon;timestamp;pressure;altitude;pressure_sealevel;temperature;humidity
71109;BME280;59614;51.012;-1.648;2022-10-16T00:00:34;99717.66;;;9.26;100.00
71109;BME280;59614;51.012;-1.648;2022-10-16T00:03:00;99728.19;;;9.25;100.00
71109;BME280;59614;51.012;-1.648;2022-10-16T00:05:26;99729.94;;;9.26;100.00
71109;BME280;59614;51.012;-1.648;2022-10-16T00:07:51;99729.94;;;9.26;100.00
71109;BME280;59614;51.012;-1.648;2022-10-16T00:10:17;99749.81;;;9.39;100.00
71109;BME280;59614;51.012;-1.648;2022-10-16T00:12:42;99746.19;;;9.45;100.00
71109;BME280;59614;51.012;-1.648;2022-10-16T00:15:08;99748.72;;;9.50;100.00
71109;BME280;59614;51.012;-1.648;2022-10-16T00:17:33;99753.97;;;9.51;100.00
71109;BME280;59614;51.012;-1.648;2022-10-16T00:19:59;99762.72;;;9.52;100.00
71109;BME280;59614;51.012;-1.648;2022-10-16T00:22:24;99755.56;;;9.57;100.00
71109;BME280;59614;51.012;-1.648;2022-10-16T00:24:50;99761.72;;;9.57;100.00
71109;BME280;59614;51.012;-1.648;2022-10-16T00:27:16;99759.13;;;9.56;100.00
71109;BME280;59614;51.012;-1.648;2022-10-16T00:29:42;99768.66;;;9.60;100.00
71109;BME280;59614;51.012;-1.648;2022-10-16T00:32:07;99765.13;;;9.61;100.00
71109;BME280;59614;51.012;-1.648;2022-10-16T00:34:33;99766.94;;;9.59;100.00
71109;BME280;59614;51.012;-1.648;2022-10-16T00:36:59;99767.81;;;9.60;100.00
71109;BME280;59614;51.012;-1.648;2022-10-16T00:39:24;99763.50;;;9.55;100.00
71109;BME280;59614;51.012;-1.648;2022-10-16T00:41:50;99762.56;;;9.58;100.00
71109;BME280;59614;51.012;-1.648;2022-10-16T00:47:33;99764.31;;;9.59;100.00
71109;BME280;59614;51.012;-1.648;2022-10-16T00:52:48;99774.94;;;9.56;100.00
71109;BME280;59614;51.012;-1.648;2022-10-16T00:55:15;99785.53;;;9.53;100.00
71109;BME280;59614;51.012;-1.648;2022-10-16T00:57:42;99789.34;;;9.39;100.00
71109;BME280;59614;51.012;-1.648;2022-10-16T01:00:10;99793.97;;;9.28;100.00
71109;BME280;59614;51.012;-1.648;2022-10-16T01:02:36;99798.53;;;9.20;100.00
71109;BME280;59614;51.012;-1.648;2022-10-16T01:05:02;99798.53;;;9.18;100.00
71109;BME280;59614;51.012;-1.648;2022-10-16T01:07:53;99785.56;;;9.10;100.00
71109;BME280;59614;51.012;-1.648;2022-10-16T01:16:12;99798.94;;;9.00;100.00
71109;BME280;59614;51.012;-1.648;2022-10-16T01:21:35;99799.16;;;8.89;100.00
71109;BME280;59614;51.012;-1.648;2022-10-16T01:24:25;99787.88;;;8.82;100.00
71109;BME280;59614;51.012;-1.648;2022-10-16T01:29:44;99804.75;;;8.70;100.00
71109;BME280;59614;51.012;-1.648;2022-10-16T01:35:10;99801.38;;;8.63;100.00
71109;BME280;59614;51.012;-1.648;2022-10-16T01:40:29;99801.59;;;8.51;100.00
71109;BME280;59614;51.012;-1.648;2022-10-16T01:42:59;99798.09;;;8.50;100.00
71109;BME280;59614;51.012;-1.648;2022-10-16T01:45:28;99804.25;;;8.49;100.00
71109;BME280;59614;51.012;-1.648;2022-10-16T01:47:56;99813.13;;;8.42;100.00
71109;BME280;59614;51.012;-1.648;2022-10-16T01:50:24;99815.81;;;8.39;100.00
71109;BME280;59614;51.012;-1.648;2022-10-16T01:52:51;99820.22;;;8.37;100.00
71109;BME280;59614;51.012;-1.648;2022-10-16T01:55:24;99821.06;;;8.39;100.00
71109;BME280;59614;51.012;-1.648;2022-10-16T01:57:51;99829.03;;;8.34;100.00
71109;BME280;59614;51.012;-1.648;2022-10-16T02:00:19;99825.56;;;8.32;100.00
71109;BME280;59614;51.012;-1.648;2022-10-16T02:02:48;99829.06;;;8.31;100.00
71109;BME280;59614;51.012;-1.648;2022-10-16T02:05:54;99824.69;;;8.32;100.00
71109;BME280;59614;51.012;-1.648;2022-10-16T02:08:22;99826.44;;;8.33;100.00
71109;BME280;59614;51.012;-1.648;2022-10-16T02:10:49;99827.25;;;8.35;100.00
71109;BME280;59614;51.012;-1.648;2022-10-16T02:13:59;99822.84;;;8.37;100.00
71109;BME280;59614;51.012;-1.648;2022-10-16T02:16:32;99830.69;;;8.40;100.00
71109;BME280;59614;51.012;-1.648;2022-10-16T02:18:58;99835.06;;;8.40;100.00
71109;BME280;59614;51.012;-1.648;2022-10-16T02:21:26;99839.59;;;8.31;100.00
71109;BME280;59614;51.012;-1.648;2022-10-16T02:26:42;99842.25;;;8.30;100.00
71109;BME280;59614;51.012;-1.648;2022-10-16T02:29:14;99840.53;;;8.29;100.00
71109;BME280;59614;51.012;-1.648;2022-10-16T02:31:45;99854.56;;;8.28;100.00
71109;BME280;59614;51.012;-1.648;2022-10-16T02:34:12;99851.00;;;8.32;100.00
71109;BME280;59614;51.012;-1.648;2022-10-16T02:36:40;99852.78;;;8.30;100.00
71109;BME280;59614;51.012;-1.648;2022-10-16T02:39:06;99851.06;;;8.26;100.00
71109;BME280;59614;51.012;-1.648;2022-10-16T02:41:32;99855.41;;;8.30;100.00
71109;BME280;59614;51.012;-1.648;2022-10-16T02:43:58;99851.88;;;8.31;100.00
71109;BME280;59614;51.012;-1.648;2022-10-16T02:46:23;99858.06;;;8.27;100.00
71109;BME280;59614;51.012;-1.648;2022-10-16T02:48:49;99855.44;;;8.27;100.00
71109;BME280;59614;51.012;-1.648;2022-10-16T02:51:14;99858.19;;;8.21;100.00
71109;BME280;59614;51.012;-1.648;2022-10-16T02:53:39;99867.84;;;8.17;100.00
71109;BME280;59614;51.012;-1.648;2022-10-16T02:56:05;99860.81;;;8.21;100.00
71109;BME280;59614;51.012;-1.648;2022-10-16T02:58:30;99867.75;;;8.25;100.00
71109;BME280;59614;51.012;-1.648;2022-10-16T03:00:56;99867.72;;;8.26;100.00
71109;BME280;59614;51.012;-1.648;2022-10-16T03:03:22;99863.44;;;8.21;100.00
71109;BME280;59614;51.012;-1.648;2022-10-16T03:05:47;99873.19;;;8.12;100.00
71109;BME280;59614;51.012;-1.648;2022-10-16T03:08:13;99874.84;;;8.19;100.00
71109;BME280;59614;51.012;-1.648;2022-10-16T03:10:38;99875.75;;;8.18;100.00
71109;BME280;59614;51.012;-1.648;2022-10-16T03:13:04;99882.75;;;8.19;100.00
71109;BME280;59614;51.012;-1.648;2022-10-16T03:15:30;99881.84;;;8.21;100.00
71109;BME280;59614;51.012;-1.648;2022-10-16T03:17:58;99878.31;;;8.22;100.00
71109;BME280;59614;51.012;-1.648;2022-10-16T03:20:25;99893.28;;;8.16;100.00
71109;BME280;59614;51.012;-1.648;2022-10-16T03:22:50;99899.47;;;8.14;100.00
71109;BME280;59614;51.012;-1.648;2022-10-16T03:25:16;99900.44;;;8.08;100.00
71109;BME280;59614;51.012;-1.648;2022-10-16T03:27:41;99899.53;;;8.08;100.00
71109;BME280;59614;51.012;-1.648;2022-10-16T03:30:07;99901.31;;;8.07;100.00
71109;BME280;59614;51.012;-1.648;2022-10-16T03:32:33;99896.06;;;8.07;100.00
71109;BME280;59614;51.012;-1.648;2022-10-16T03:34:59;99897.00;;;8.00;100.00
71109;BME280;59614;51.012;-1.648;2022-10-16T03:37:24;99902.31;;;7.98;100.00
71109;BME280;59614;51.012;-1.648;2022-10-16T03:39:49;99909.31;;;7.99;100.00
71109;BME280;59614;51.012;-1.648;2022-10-16T03:42:15;99899.69;;;7.98;100.00
71109;BME280;59614;51.012;-1.648;2022-10-16T03:44:40;99907.63;;;7.94;100.00
71109;BME280;59614;51.012;-1.648;2022-10-16T03:47:06;99912.03;;;7.92;100.00
71109;BME280;59614;51.012;-1.648;2022-10-16T03:49:31;99916.44;;;7.89;100.00
71109;BME280;59614;51.012;-1.648;2022-10-16T03:51:57;99929.63;;;7.85;100.00
71109;BME280;59614;51.012;-1.648;2022-10-16T03:54:22;99924.41;;;7.83;100.00
71109;BME280;59614;51.012;-1.648;2022-10-16T03:56:48;99927.09;;;7.79;100.00
71109;BME280;59614;51.012;-1.648;2022-10-16T03:59:13;99936.75;;;7.77;100.00
71109;BME280;59614;51.012;-1.648;2022-10-16T04:01:39;99925.44;;;7.71;100.00
71109;BME280;59614;51.012;-1.648;2022-10-16T04:04:05;99938.56;;;7.71;100.00
71109;BME280;59614;51.012;-1.648;2022-10-16T04:06:30;99933.31;;;7.73;100.00
71109;BME280;59614;51.012;-1.648;2022-10-16T04:08:56;99940.38;;;7.69;100.00
71109;BME280;59614;51.012;-1.648;2022-10-16T04:11:21;99938.59;;;7.70;100.00
71109;BME280;59614;51.012;-1.648;2022-10-16T04:13:47;99951.72;;;7.70;100.00
71109;BME280;59614;51.012;-1.648;2022-10-16T04:16:12;99946.50;;;7.68;100.00
71109;BME280;59614;51.012;-1.648;2022-10-16T04:18:38;99954.28;;;7.75;100.00
71109;BME280;59614;51.012;-1.648;2022-10-16T04:21:05;99952.59;;;7.69;100.00
71109;BME280;59614;51.012;-1.648;2022-10-16T04:23:31;99950.88;;;7.68;100.00
71109;BME280;59614;51.012;-1.648;2022-10-16T04:25:56;99956.09;;;7.71;100.00
71109;BME280;59614;51.012;-1.648;2022-10-16T04:28:22;99956.91;;;7.75;100.00
71109;BME280;59614;51.012;-1.648;2022-10-16T04:30:47;99960.50;;;7.69;100.00
71109;BME280;59614;51.012;-1.648;2022-10-16T04:33:13;99966.56;;;7.72;100.00
71109;BME280;59614;51.012;-1.648;2022-10-16T04:35:38;99973.59;;;7.72;100.00
71109;BME280;59614;51.012;-1.648;2022-10-16T04:38:04;99983.25;;;7.70;100.00
71109;BME280;59614;51.012;-1.648;2022-10-16T04:40:29;99978.00;;;7.70;100.00
71109;BME280;59614;51.012;-1.648;2022-10-16T04:42:58;99983.25;;;7.70;100.00
71109;BME280;59614;51.012;-1.648;2022-10-16T04:45:23;99991.16;;;7.67;100.00
71109;BME280;59614;51.012;-1.648;2022-10-16T04:47:48;99993.78;;;7.67;100.00
71109;BME280;59614;51.012;-1.648;2022-10-16T04:50:14;99999.09;;;7.64;100.00
71109;BME280;59614;51.012;-1.648;2022-10-16T04:52:39;99997.38;;;7.60;100.00
71109;BME280;59614;51.012;-1.648;2022-10-16T04:55:05;100014.03;;;7.55;100.00
71109;BME280;59614;51.012;-1.648;2022-10-16T04:57:31;100007.94;;;7.55;100.00
71109;BME280;59614;51.012;-1.648;2022-10-16T04:59:58;100019.31;;;7.54;100.00
71109;BME280;59614;51.012;-1.648;2022-10-16T05:02:24;100025.44;;;7.54;100.00
71109;BME280;59614;51.012;-1.648;2022-10-16T05:04:49;100019.34;;;7.51;100.00
71109;BME280;59614;51.012;-1.648;2022-10-16T05:07:15;100025.44;;;7.54;100.00
71109;BME280;59614;51.012;-1.648;2022-10-16T05:09:40;100029.00;;;7.47;100.00
71109;BME280;59614;51.012;-1.648;2022-10-16T05:12:06;100036.03;;;7.45;100.00
71109;BME280;59614;51.012;-1.648;2022-10-16T05:14:31;100030.00;;;7.37;100.00
71109;BME280;59614;51.012;-1.648;2022-10-16T05:16:57;100041.34;;;7.39;100.00
71109;BME280;59614;51.012;-1.648;2022-10-16T05:19:22;100040.47;;;7.40;100.00
71109;BME280;59614;51.012;-1.648;2022-10-16T05:21:48;100040.50;;;7.37;100.00
71109;BME280;59614;51.012;-1.648;2022-10-16T05:24:13;100048.44;;;7.31;100.00
71109;BME280;59614;51.012;-1.648;2022-10-16T05:26:39;100046.66;;;7.33;100.00
71109;BME280;59614;51.012;-1.648;2022-10-16T05:29:04;100052.72;;;7.39;100.00
71109;BME280;59614;51.012;-1.648;2022-10-16T05:31:30;100065.88;;;7.36;100.00
71109;BME280;59614;51.012;-1.648;2022-10-16T05:33:59;100068.59;;;7.29;100.00
71109;BME280;59614;51.012;-1.648;2022-10-16T05:36:25;100067.72;;;7.23;100.00
71109;BME280;59614;51.012;-1.648;2022-10-16T05:38:51;100068.72;;;7.15;100.00
71109;BME280;59614;51.012;-1.648;2022-10-16T05:41:17;100074.88;;;7.09;100.00
71109;BME280;59614;51.012;-1.648;2022-10-16T05:43:47;100074.91;;;7.00;100.00
71109;BME280;59614;51.012;-1.648;2022-10-16T05:46:12;100083.72;;;6.92;100.00
71109;BME280;59614;51.012;-1.648;2022-10-16T05:48:38;100086.34;;;6.89;100.00
71109;BME280;59614;51.012;-1.648;2022-10-16T05:51:08;100075.03;;;6.84;100.00
71109;BME280;59614;51.012;-1.648;2022-10-16T05:53:35;100078.56;;;6.77;100.00
71109;BME280;59614;51.012;-1.648;2022-10-16T05:56:01;100085.59;;;6.75;100.00
71109;BME280;59614;51.012;-1.648;2022-10-16T05:58:35;100087.28;;;6.82;100.00
71109;BME280;59614;51.012;-1.648;2022-10-16T06:01:12;100099.50;;;6.88;100.00
71109;BME280;59614;51.012;-1.648;2022-10-16T06:03:38;100103.06;;;6.74;100.00
71109;BME280;59614;51.012;-1.648;2022-10-16T06:06:14;100102.16;;;6.80;100.00
71109;BME280;59614;51.012;-1.648;2022-10-16T06:08:40;100097.78;;;6.79;100.00
71109;BME280;59614;51.012;-1.648;2022-10-16T06:11:11;100095.19;;;6.74;100.00
71109;BME280;59614;51.012;-1.648;2022-10-16T06:13:38;100095.22;;;6.71;100.00
71109;BME280;59614;51.012;-1.648;2022-10-16T06:16:06;100097.84;;;6.70;100.00
71109;BME280;59614;51.012;-1.648;2022-10-16T06:18:32;100099.59;;;6.74;100.00
71109;BME280;59614;51.012;-1.648;2022-10-16T06:20:57;100096.06;;;6.78;100.00
71109;BME280;59614;51.012;-1.648;2022-10-16T06:23:24;100103.03;;;6.79;100.00
71109;BME280;59614;51.012;-1.648;2022-10-16T06:25:51;100109.16;;;6.84;100.00
71109;BME280;59614;51.012;-1.648;2022-10-16T06:28:16;100106.53;;;6.84;100.00
71109;BME280;59614;51.012;-1.648;2022-10-16T06:30:42;100112.66;;;6.80;100.00
71109;BME280;59614;51.012;-1.648;2022-10-16T06:33:11;100118.78;;;6.76;100.00
71109;BME280;59614;51.012;-1.648;2022-10-16T06:35:37;100128.41;;;6.77;100.00
71109;BME280;59614;51.012;-1.648;2022-10-16T06:38:02;100136.31;;;6.74;100.00
71109;BME280;59614;51.012;-1.648;2022-10-16T06:40:28;100143.31;;;6.75;100.00
71109;BME280;59614;51.012;-1.648;2022-10-16T06:42:57;100151.16;;;6.79;100.00
71109;BME280;59614;51.012;-1.648;2022-10-16T06:45:22;100145.00;;;6.82;100.00
71109;BME280;59614;51.012;-1.648;2022-10-16T06:47:47;100148.44;;;6.87;100.00
71109;BME280;59614;51.012;-1.648;2022-10-16T06:50:13;100154.53;;;6.94;100.00
71109;BME280;59614;51.012;-1.648;2022-10-16T06:52:39;100151.06;;;6.93;100.00
71109;BME280;59614;51.012;-1.648;2022-10-16T06:55:05;100148.38;;;7.03;100.00
71109;BME280;59614;51.012;-1.648;2022-10-16T06:57:30;100148.31;;;7.12;100.00
71109;BME280;59614;51.012;-1.648;2022-10-16T06:59:56;100151.78;;;7.17;100.00
71109;BME280;59614;51.012;-1.648;2022-10-16T07:02:21;100155.19;;;7.32;100.00
71109;BME280;59614;51.012;-1.648;2022-10-16T07:04:47;100154.25;;;7.39;100.00
71109;BME280;59614;51.012;-1.648;2022-10-16T07:07:12;100155.97;;;7.41;100.00
71109;BME280;59614;51.012;-1.648;2022-10-16T07:09:38;100171.66;;;7.51;100.00
71109;BME280;59614;51.012;-1.648;2022-10-16T07:12:04;100162.81;;;7.61;100.00
71109;BME280;59614;51.012;-1.648;2022-10-16T07:14:29;100174.13;;;7.71;100.00
71109;BME280;59614;51.012;-1.648;2022-10-16T07:16:55;100165.28;;;7.78;100.00
71109;BME280;59614;51.012;-1.648;2022-10-16T07:19:21;100173.09;;;7.86;100.00
71109;BME280;59614;51.012;-1.648;2022-10-16T07:21:46;100177.44;;;7.92;100.00
71109;BME280;59614;51.012;-1.648;2022-10-16T07:24:14;100174.75;;;7.96;100.00
71109;BME280;59614;51.012;-1.648;2022-10-16T07:26:43;100181.78;;;7.96;100.00
71109;BME280;59614;51.012;-1.648;2022-10-16T07:29:20;100184.41;;;7.96;100.00
71109;BME280;59614;51.012;-1.648;2022-10-16T07:31:46;100183.50;;;7.98;100.00
71109;BME280;59614;51.012;-1.648;2022-10-16T07:34:13;100182.59;;;8.01;100.00
71109;BME280;59614;51.012;-1.648;2022-10-16T07:36:39;100192.28;;;7.97;100.00
71109;BME280;59614;51.012;-1.648;2022-10-16T07:39:04;100193.13;;;8.02;100.00
71109;BME280;59614;51.012;-1.648;2022-10-16T07:41:30;100199.25;;;8.00;100.00
71109;BME280;59614;51.012;-1.648;2022-10-16T07:43:58;100208.03;;;7.97;100.00
71109;BME280;59614;51.012;-1.648;2022-10-16T07:46:26;100207.09;;;8.06;100.00
71109;BME280;59614;51.012;-1.648;2022-10-16T07:48:52;100206.91;;;8.25;100.00
71109;BME280;59614;51.012;-1.648;2022-10-16T07:51:20;100204.13;;;8.37;100.00
71109;BME280;59614;51.012;-1.648;2022-10-16T07:53:46;100205.75;;;8.52;100.00
71109;BME280;59614;51.012;-1.648;2022-10-16T07:56:12;100204.91;;;8.52;100.00
71109;BME280;59614;51.012;-1.648;2022-10-16T07:58:38;100205.72;;;8.55;100.00
71109;BME280;59614;51.012;-1.648;2022-10-16T08:01:12;100208.25;;;8.66;100.00
71109;BME280;59614;51.012;-1.648;2022-10-16T08:03:38;100207.41;;;8.61;100.00
71109;BME280;59614;51.012;-1.648;2022-10-16T08:06:06;100218.69;;;8.72;100.00
71109;BME280;59614;51.012;-1.648;2022-10-16T08:08:32;100213.25;;;8.88;100.00
71109;BME280;59614;51.012;-1.648;2022-10-16T08:10:57;100214.06;;;8.90;100.00
71109;BME280;59614;51.012;-1.648;2022-10-16T08:13:22;100214.88;;;8.95;100.00
71109;BME280;59614;51.012;-1.648;2022-10-16T08:15:48;100222.75;;;8.96;100.00
71109;BME280;59614;51.012;-1.648;2022-10-16T08:18:14;100227.88;;;9.07;100.00
71109;BME280;59614;51.012;-1.648;2022-10-16T08:20:41;100240.06;;;9.15;100.00
71109;BME280;59614;51.012;-1.648;2022-10-16T08:23:07;100244.44;;;9.16;100.00
71109;BME280;59614;51.012;-1.648;2022-10-16T08:25:35;100243.34;;;9.31;100.00
71109;BME280;59614;51.012;-1.648;2022-10-16T08:28:03;100241.47;;;9.40;100.00
71109;BME280;59614;51.012;-1.648;2022-10-16T08:30:29;100244.81;;;9.52;100.00
71109;BME280;59614;51.012;-1.648;2022-10-16T08:32:55;100248.19;;;9.60;100.00
71109;BME280;59614;51.012;-1.648;2022-10-16T08:35:20;100248.13;;;9.65;100.00
71109;BME280;59614;51.012;-1.648;2022-10-16T08:37:46;100244.50;;;9.73;100.00
71109;BME280;59614;51.012;-1.648;2022-10-16T08:40:26;100245.22;;;9.83;100.00
71109;BME280;59614;51.012;-1.648;2022-10-16T08:50:55;100262.28;;;10.14;100.00
71109;BME280;59614;51.012;-1.648;2022-10-16T08:53:25;100258.66;;;10.21;100.00
71109;BME280;59614;51.012;-1.648;2022-10-16T08:55:54;100264.69;;;10.28;100.00
71109;BME280;59614;51.012;-1.648;2022-10-16T08:58:22;100261.81;;;10.42;100.00
71109;BME280;59614;51.012;-1.648;2022-10-16T09:00:54;100263.44;;;10.49;100.00
71109;BME280;59614;51.012;-1.648;2022-10-16T09:11:56;100276.59;;;10.97;100.00
71109;BME280;59614;51.012;-1.648;2022-10-16T09:14:40;100279.81;;;11.12;100.00
71109;BME280;59614;51.012;-1.648;2022-10-16T09:17:41;100274.34;;;11.21;100.00
71109;BME280;59614;51.012;-1.648;2022-10-16T09:25:30;100270.84;;;11.19;100.00
71109;BME280;59614;51.012;-1.648;2022-10-16T09:27:56;100273.50;;;11.19;100.00
71109;BME280;59614;51.012;-1.648;2022-10-16T09:30:22;100270.81;;;11.21;100.00
71109;BME280;59614;51.012;-1.648;2022-10-16T09:32:51;100274.13;;;11.31;100.00
71109;BME280;59614;51.012;-1.648;2022-10-16T09:35:22;100270.69;;;11.27;100.00
71109;BME280;59614;51.012;-1.648;2022-10-16T09:37:53;100279.31;;;11.35;100.00
71109;BME280;59614;51.012;-1.648;2022-10-16T09:40:26;100277.09;;;11.56;100.00
71109;BME280;59614;51.012;-1.648;2022-10-16T09:43:02;100283.91;;;11.66;100.00
71109;BME280;59614;51.012;-1.648;2022-10-16T09:45:29;100280.16;;;11.75;97.94
71109;BME280;59614;51.012;-1.648;2022-10-16T09:47:54;100273.81;;;11.84;97.09
71109;BME280;59614;51.012;-1.648;2022-10-16T09:50:29;100279.81;;;11.90;100.00
71109;BME280;59614;51.012;-1.648;2022-10-16T09:53:24;100279.72;;;11.94;97.49
71109;BME280;59614;51.012;-1.648;2022-10-16T09:55:53;100275.91;;;12.07;94.66
71109;BME280;59614;51.012;-1.648;2022-10-16T09:58:22;100275.47;;;12.24;94.81
71109;BME280;59614;51.012;-1.648;2022-10-16T10:00:53;100271.97;;;12.24;97.11
71109;BME280;59614;51.012;-1.648;2022-10-16T10:03:39;100273.72;;;12.25;98.83
71109;BME280;59614;51.012;-1.648;2022-10-16T10:06:22;100276.44;;;12.22;99.43
71109;BME280;59614;51.012;-1.648;2022-10-16T10:08:57;100268.97;;;12.03;98.21
71109;BME280;59614;51.012;-1.648;2022-10-16T10:11:40;100271.84;;;11.92;98.75
71109;BME280;59614;51.012;-1.648;2022-10-16T10:16:52;100270.03;;;11.94;96.23
71109;BME280;59614;51.012;-1.648;2022-10-16T10:19:23;100277.81;;;12.02;95.71
71109;BME280;59614;51.012;-1.648;2022-10-16T10:21:50;100279.66;;;11.98;95.45
71109;BME280;59614;51.012;-1.648;2022-10-16T10:24:18;100278.66;;;12.02;98.53
71109;BME280;59614;51.012;-1.648;2022-10-16T10:29:22;100278.53;;;12.09;97.54
71109;BME280;59614;51.012;-1.648;2022-10-16T10:32:11;100278.53;;;12.09;96.05
71109;BME280;59614;51.012;-1.648;2022-10-16T10:34:54;100277.81;;;12.02;96.48
71109;BME280;59614;51.012;-1.648;2022-10-16T10:40:32;100271.22;;;12.18;94.73
71109;BME280;59614;51.012;-1.648;2022-10-16T10:45:47;100272.81;;;12.26;93.92
71109;BME280;59614;51.012;-1.648;2022-10-16T10:51:12;100279.94;;;12.57;95.56
71109;BME280;59614;51.012;-1.648;2022-10-16T10:59:36;100275.22;;;12.35;91.61
71109;BME280;59614;51.012;-1.648;2022-10-16T11:07:20;100269.09;;;12.66;92.88
71109;BME280;59614;51.012;-1.648;2022-10-16T11:09:53;100267.06;;;12.76;89.16
71109;BME280;59614;51.012;-1.648;2022-10-16T11:12:29;100268.41;;;12.91;88.29
71109;BME280;59614;51.012;-1.648;2022-10-16T11:18:23;100274.53;;;12.93;87.48
71109;BME280;59614;51.012;-1.648;2022-10-16T11:21:04;100270.97;;;13.24;89.02
71109;BME280;59614;51.012;-1.648;2022-10-16T11:23:42;100267.88;;;13.38;87.76
71109;BME280;59614;51.012;-1.648;2022-10-16T11:26:19;100274.06;;;13.40;86.50
71109;BME280;59614;51.012;-1.648;2022-10-16T11:28:48;100274.00;;;13.41;85.94
71109;BME280;59614;51.012;-1.648;2022-10-16T11:31:38;100268.03;;;13.63;91.61
71109;BME280;59614;51.012;-1.648;2022-10-16T11:34:31;100269.56;;;13.99;91.32
71109;BME280;59614;51.012;-1.648;2022-10-16T11:37:12;100269.44;;;14.02;86.89
71109;BME280;59614;51.012;-1.648;2022-10-16T11:39:40;100269.25;;;14.08;85.01
71109;BME280;59614;51.012;-1.648;2022-10-16T11:42:18;100273.41;;;14.15;88.26
71109;BME280;59614;51.012;-1.648;2022-10-16T11:47:44;100261.03;;;14.16;83.17
71109;BME280;59614;51.012;-1.648;2022-10-16T11:50:31;100265.19;;;14.23;82.71
71109;BME280;59614;51.012;-1.648;2022-10-16T11:55:43;100257.13;;;14.26;83.46
71109;BME280;59614;51.012;-1.648;2022-10-16T12:01:10;100250.25;;;14.46;84.82
71109;BME280;59614;51.012;-1.648;2022-10-16T12:03:44;100252.34;;;14.36;81.73
71109;BME280;59614;51.012;-1.648;2022-10-16T12:06:27;100255.13;;;14.33;80.82
71109;BME280;59614;51.012;-1.648;2022-10-16T12:08:58;100250.09;;;14.50;81.27
71109;BME280;59614;51.012;-1.648;2022-10-16T12:16:57;100248.00;;;14.59;84.26
71109;BME280;59614;51.012;-1.648;2022-10-16T12:19:26;100253.13;;;14.40;82.81
71109;BME280;59614;51.012;-1.648;2022-10-16T12:21:54;100244.75;;;14.52;81.00
71109;BME280;59614;51.012;-1.648;2022-10-16T12:27:01;100241.09;;;15.27;80.60
71109;BME280;59614;51.012;-1.648;2022-10-16T12:32:02;100228.56;;;14.58;80.09
71109;BME280;59614;51.012;-1.648;2022-10-16T12:37:13;100242.69;;;14.35;83.28
71109;BME280;59614;51.012;-1.648;2022-10-16T12:39:40;100236.00;;;14.23;82.28
71109;BME280;59614;51.012;-1.648;2022-10-16T12:44:45;100223.53;;;14.25;87.14
71109;BME280;59614;51.012;-1.648;2022-10-16T12:47:22;100236.50;;;14.08;84.91
71109;BME280;59614;51.012;-1.648;2022-10-16T12:49:52;100224.56;;;14.21;83.92
71109;BME280;59614;51.012;-1.648;2022-10-16T12:54:58;100231.09;;;14.87;82.47
71109;BME280;59614;51.012;-1.648;2022-10-16T12:57:41;100224.69;;;14.92;83.68
71109;BME280;59614;51.012;-1.648;2022-10-16T13:09:19;100214.72;;;15.21;81.61
71109;BME280;59614;51.012;-1.648;2022-10-16T13:12:14;100207.72;;;14.73;75.49
71109;BME280;59614;51.012;-1.648;2022-10-16T13:24:02;100192.19;;;14.60;77.71
71109;BME280;59614;51.012;-1.648;2022-10-16T13:29:03;100182.28;;;14.89;77.19
71109;BME280;59614;51.012;-1.648;2022-10-16T13:31:30;100184.91;;;14.67;78.26
71109;BME280;59614;51.012;-1.648;2022-10-16T13:33:58;100201.94;;;14.60;76.62
71109;BME280;59614;51.012;-1.648;2022-10-16T13:36:27;100200.69;;;14.72;78.51
71109;BME280;59614;51.012;-1.648;2022-10-16T13:39:13;100192.31;;;14.57;79.36
71109;BME280;59614;51.012;-1.648;2022-10-16T13:41:40;100193.00;;;14.39;79.21
71109;BME280;59614;51.012;-1.648;2022-10-16T13:44:14;100193.84;;;14.39;79.85
71109;BME280;59614;51.012;-1.648;2022-10-16T13:46:41;100201.97;;;14.34;79.87
71109;BME280;59614;51.012;-1.648;2022-10-16T13:49:17;100205.50;;;14.35;80.53
71109;BME280;59614;51.012;-1.648;2022-10-16T13:51:58;100199.56;;;14.28;80.39
71109;BME280;59614;51.012;-1.648;2022-10-16T13:54:26;100187.69;;;14.39;80.91
71109;BME280;59614;51.012;-1.648;2022-10-16T13:56:52;100198.16;;;14.42;80.77
71109;BME280;59614;51.012;-1.648;2022-10-16T13:59:47;100193.00;;;14.39;79.96
71109;BME280;59614;51.012;-1.648;2022-10-16T14:02:34;100194.16;;;14.55;81.81
71109;BME280;59614;51.012;-1.648;2022-10-16T14:05:03;100188.84;;;14.55;80.96
71109;BME280;59614;51.012;-1.648;2022-10-16T14:07:31;100187.53;;;14.42;80.00
71109;BME280;59614;51.012;-1.648;2022-10-16T14:10:04;100185.19;;;14.34;80.71
71109;BME280;59614;51.012;-1.648;2022-10-16T14:12:30;100182.56;;;14.32;81.79
71109;BME280;59614;51.012;-1.648;2022-10-16T14:14:57;100180.72;;;14.34;81.10
71109;BME280;59614;51.012;-1.648;2022-10-16T14:17:35;100178.78;;;14.40;83.28
71109;BME280;59614;51.012;-1.648;2022-10-16T14:20:04;100172.31;;;14.47;83.17
71109;BME280;59614;51.012;-1.648;2022-10-16T14:24:58;100166.78;;;14.29;81.87
71109;BME280;59614;51.012;-1.648;2022-10-16T14:27:33;100178.34;;;14.27;82.89
71109;BME280;59614;51.012;-1.648;2022-10-16T14:30:20;100160.38;;;14.10;82.76
71109;BME280;59614;51.012;-1.648;2022-10-16T14:35:32;100146.84;;;14.17;85.41
71109;BME280;59614;51.012;-1.648;2022-10-16T14:38:00;100149.97;;;14.03;84.28
71109;BME280;59614;51.012;-1.648;2022-10-16T14:40:29;100148.44;;;13.96;84.79
71109;BME280;59614;51.012;-1.648;2022-10-16T14:42:55;100157.47;;;13.92;86.32
71109;BME280;59614;51.012;-1.648;2022-10-16T14:45:24;100145.97;;;13.92;85.89
71109;BME280;59614;51.012;-1.648;2022-10-16T14:47:57;100145.84;;;13.95;86.03
71109;BME280;59614;51.012;-1.648;2022-10-16T14:50:23;100127.13;;;13.99;86.27
71109;BME280;59614;51.012;-1.648;2022-10-16T14:52:48;100132.44;;;13.99;86.76
71109;BME280;59614;51.012;-1.648;2022-10-16T14:55:14;100141.31;;;13.98;86.65
71109;BME280;59614;51.012;-1.648;2022-10-16T14:57:40;100137.97;;;13.93;85.47
71109;BME280;59614;51.012;-1.648;2022-10-16T15:00:24;100127.56;;;13.87;86.01
71109;BME280;59614;51.012;-1.648;2022-10-16T15:02:50;100131.03;;;13.89;86.56